Meadowview, Pennsylvania
Current Conditions -  °F | °C
As of 7:53 PM on Monday 20 Oct 2014 (Local Time) from KSEG Reporting Station
Overcast Overcast  
Wind Chill: 57°   Ceiling: 8000
Heat Index: 57°   Visibility: 10mi
Dew Point: 40°   Wind: 6mph
Humidity: 53%   Direction: 180°S
Pressure: 29.93"   Gusts: NA
Location:  40.8354°N, 76.6402°W
Report Text: KSEG 202353Z AUTO 18005KT 10SM OVC080 14/04 A2993 RMK AO2 RAB01E34 SLP135 P0000 60000 T01390044 10161 20133 53001
Loading
Personal Weather Stations






























Interactive Weather Map
Tropical Storm Tracking
New forecast layout! Learn more

10-Day Weather Forecast

Advertisements
Track Severe Weather on mobile